sensor_id;sensor_type;location;lat;lon;timestamp;P1;durP1;ratioP1;P2;durP2;ratioP2
63007;SDS011;49266;47.552;19.078;2022-11-13T00:03:46;111.68;;;61.30;;
63007;SDS011;49266;47.552;19.078;2022-11-13T00:08:26;114.03;;;61.97;;
63007;SDS011;49266;47.552;19.078;2022-11-13T00:13:07;120.70;;;66.78;;
63007;SDS011;49266;47.552;19.078;2022-11-13T00:17:47;112.63;;;61.72;;
63007;SDS011;49266;47.552;19.078;2022-11-13T00:22:27;120.82;;;63.88;;
63007;SDS011;49266;47.552;19.078;2022-11-13T00:27:07;113.22;;;61.80;;
63007;SDS011;49266;47.552;19.078;2022-11-13T00:31:47;129.25;;;65.30;;
63007;SDS011;49266;47.552;19.078;2022-11-13T00:36:28;173.38;;;65.82;;
63007;SDS011;49266;47.552;19.078;2022-11-13T00:41:08;228.18;;;73.13;;
63007;SDS011;49266;47.552;19.078;2022-11-13T00:45:48;207.13;;;69.22;;
63007;SDS011;49266;47.552;19.078;2022-11-13T00:50:28;226.38;;;69.35;;
63007;SDS011;49266;47.552;19.078;2022-11-13T00:55:08;248.90;;;71.05;;
63007;SDS011;49266;47.552;19.078;2022-11-13T00:59:49;443.50;;;78.55;;
63007;SDS011;49266;47.552;19.078;2022-11-13T01:04:29;259.10;;;72.30;;
63007;SDS011;49266;47.552;19.078;2022-11-13T01:09:09;255.80;;;69.57;;
63007;SDS011;49266;47.552;19.078;2022-11-13T01:13:50;321.20;;;70.40;;
63007;SDS011;49266;47.552;19.078;2022-11-13T01:18:30;324.65;;;71.50;;
63007;SDS011;49266;47.552;19.078;2022-11-13T01:23:10;215.75;;;68.60;;
63007;SDS011;49266;47.552;19.078;2022-11-13T01:27:52;327.67;;;69.45;;
63007;SDS011;49266;47.552;19.078;2022-11-13T01:32:32;266.92;;;69.53;;
63007;SDS011;49266;47.552;19.078;2022-11-13T01:37:12;130.23;;;64.63;;
63007;SDS011;49266;47.552;19.078;2022-11-13T01:41:52;233.02;;;69.93;;
63007;SDS011;49266;47.552;19.078;2022-11-13T01:46:34;227.40;;;59.85;;
63007;SDS011;49266;47.552;19.078;2022-11-13T01:51:19;213.57;;;59.72;;
63007;SDS011;49266;47.552;19.078;2022-11-13T01:56:01;171.02;;;62.33;;
63007;SDS011;49266;47.552;19.078;2022-11-13T02:00:42;241.60;;;63.88;;
63007;SDS011;49266;47.552;19.078;2022-11-13T02:05:22;238.00;;;62.88;;
63007;SDS011;49266;47.552;19.078;2022-11-13T02:10:02;193.20;;;58.33;;
63007;SDS011;49266;47.552;19.078;2022-11-13T02:14:43;152.30;;;57.53;;
63007;SDS011;49266;47.552;19.078;2022-11-13T02:19:29;150.13;;;60.67;;
63007;SDS011;49266;47.552;19.078;2022-11-13T02:24:13;134.52;;;57.90;;
63007;SDS011;49266;47.552;19.078;2022-11-13T02:28:55;112.88;;;53.08;;
63007;SDS011;49266;47.552;19.078;2022-11-13T02:33:35;127.65;;;52.83;;
63007;SDS011;49266;47.552;19.078;2022-11-13T02:38:15;133.40;;;54.78;;
63007;SDS011;49266;47.552;19.078;2022-11-13T02:42:55;161.07;;;51.97;;
63007;SDS011;49266;47.552;19.078;2022-11-13T02:47:36;218.27;;;56.25;;
63007;SDS011;49266;47.552;19.078;2022-11-13T02:52:16;243.57;;;55.35;;
63007;SDS011;49266;47.552;19.078;2022-11-13T02:56:56;218.65;;;55.30;;
63007;SDS011;49266;47.552;19.078;2022-11-13T03:01:36;283.13;;;54.45;;
63007;SDS011;49266;47.552;19.078;2022-11-13T03:06:16;215.20;;;49.47;;
63007;SDS011;49266;47.552;19.078;2022-11-13T03:10:57;248.65;;;52.17;;
63007;SDS011;49266;47.552;19.078;2022-11-13T03:15:37;191.20;;;52.83;;
63007;SDS011;49266;47.552;19.078;2022-11-13T03:20:17;187.98;;;50.83;;
63007;SDS011;49266;47.552;19.078;2022-11-13T03:24:57;204.18;;;52.28;;
63007;SDS011;49266;47.552;19.078;2022-11-13T03:29:37;233.65;;;51.08;;
63007;SDS011;49266;47.552;19.078;2022-11-13T03:34:18;197.90;;;51.15;;
63007;SDS011;49266;47.552;19.078;2022-11-13T03:38:58;200.43;;;48.97;;
63007;SDS011;49266;47.552;19.078;2022-11-13T03:43:38;235.40;;;50.78;;
63007;SDS011;49266;47.552;19.078;2022-11-13T03:48:18;233.55;;;51.58;;
63007;SDS011;49266;47.552;19.078;2022-11-13T03:52:58;172.88;;;50.78;;
63007;SDS011;49266;47.552;19.078;2022-11-13T03:57:38;157.85;;;50.22;;
63007;SDS011;49266;47.552;19.078;2022-11-13T04:02:19;163.18;;;48.53;;
63007;SDS011;49266;47.552;19.078;2022-11-13T04:06:59;176.85;;;46.67;;
63007;SDS011;49266;47.552;19.078;2022-11-13T04:11:39;174.82;;;48.10;;
63007;SDS011;49266;47.552;19.078;2022-11-13T04:16:19;183.07;;;48.08;;
63007;SDS011;49266;47.552;19.078;2022-11-13T04:21:00;219.38;;;51.33;;
63007;SDS011;49266;47.552;19.078;2022-11-13T04:25:40;173.55;;;51.40;;
63007;SDS011;49266;47.552;19.078;2022-11-13T04:30:21;284.67;;;54.90;;
63007;SDS011;49266;47.552;19.078;2022-11-13T04:35:01;139.27;;;45.75;;
63007;SDS011;49266;47.552;19.078;2022-11-13T04:39:41;168.20;;;47.95;;
63007;SDS011;49266;47.552;19.078;2022-11-13T04:44:21;182.60;;;46.10;;
63007;SDS011;49266;47.552;19.078;2022-11-13T04:49:02;201.95;;;47.70;;
63007;SDS011;49266;47.552;19.078;2022-11-13T04:53:42;213.30;;;49.75;;
63007;SDS011;49266;47.552;19.078;2022-11-13T04:58:22;188.07;;;47.42;;
63007;SDS011;49266;47.552;19.078;2022-11-13T05:03:02;211.65;;;52.03;;
63007;SDS011;49266;47.552;19.078;2022-11-13T05:07:42;221.23;;;49.72;;
63007;SDS011;49266;47.552;19.078;2022-11-13T05:12:22;211.50;;;49.80;;
63007;SDS011;49266;47.552;19.078;2022-11-13T05:17:03;253.57;;;49.50;;
63007;SDS011;49266;47.552;19.078;2022-11-13T05:21:43;273.70;;;52.10;;
63007;SDS011;49266;47.552;19.078;2022-11-13T05:26:24;265.88;;;47.70;;
63007;SDS011;49266;47.552;19.078;2022-11-13T05:31:11;214.18;;;50.38;;
63007;SDS011;49266;47.552;19.078;2022-11-13T05:35:52;276.55;;;53.00;;
63007;SDS011;49266;47.552;19.078;2022-11-13T05:40:32;284.60;;;52.10;;
63007;SDS011;49266;47.552;19.078;2022-11-13T05:45:12;254.68;;;51.67;;
63007;SDS011;49266;47.552;19.078;2022-11-13T05:49:53;185.82;;;47.03;;
63007;SDS011;49266;47.552;19.078;2022-11-13T05:54:33;195.85;;;47.55;;
63007;SDS011;49266;47.552;19.078;2022-11-13T05:59:13;210.93;;;44.95;;
63007;SDS011;49266;47.552;19.078;2022-11-13T06:03:54;237.20;;;41.38;;
63007;SDS011;49266;47.552;19.078;2022-11-13T06:08:34;255.00;;;42.20;;
63007;SDS011;49266;47.552;19.078;2022-11-13T06:13:15;179.77;;;39.90;;
63007;SDS011;49266;47.552;19.078;2022-11-13T06:17:55;206.57;;;41.92;;
63007;SDS011;49266;47.552;19.078;2022-11-13T06:22:35;314.95;;;45.00;;
63007;SDS011;49266;47.552;19.078;2022-11-13T06:27:15;213.75;;;40.83;;
63007;SDS011;49266;47.552;19.078;2022-11-13T06:31:55;267.75;;;42.85;;
63007;SDS011;49266;47.552;19.078;2022-11-13T06:36:36;349.98;;;45.50;;
63007;SDS011;49266;47.552;19.078;2022-11-13T06:41:17;258.65;;;44.33;;
63007;SDS011;49266;47.552;19.078;2022-11-13T06:45:58;163.20;;;41.47;;
63007;SDS011;49266;47.552;19.078;2022-11-13T06:50:38;168.10;;;37.10;;
63007;SDS011;49266;47.552;19.078;2022-11-13T06:55:24;277.45;;;40.53;;
63007;SDS011;49266;47.552;19.078;2022-11-13T07:00:05;185.18;;;39.38;;
63007;SDS011;49266;47.552;19.078;2022-11-13T07:04:45;138.30;;;39.47;;
63007;SDS011;49266;47.552;19.078;2022-11-13T07:09:25;173.35;;;38.75;;
63007;SDS011;49266;47.552;19.078;2022-11-13T07:14:07;158.05;;;40.13;;
63007;SDS011;49266;47.552;19.078;2022-11-13T07:18:49;285.38;;;41.50;;
63007;SDS011;49266;47.552;19.078;2022-11-13T07:23:29;134.05;;;33.13;;
63007;SDS011;49266;47.552;19.078;2022-11-13T07:28:10;228.57;;;38.78;;
63007;SDS011;49266;47.552;19.078;2022-11-13T07:32:51;180.85;;;37.65;;
63007;SDS011;49266;47.552;19.078;2022-11-13T07:37:31;96.55;;;36.75;;
63007;SDS011;49266;47.552;19.078;2022-11-13T07:42:11;124.10;;;35.70;;
63007;SDS011;49266;47.552;19.078;2022-11-13T07:46:52;219.32;;;33.80;;
63007;SDS011;49266;47.552;19.078;2022-11-13T07:51:32;183.80;;;34.95;;
63007;SDS011;49266;47.552;19.078;2022-11-13T07:56:12;204.00;;;34.55;;
63007;SDS011;49266;47.552;19.078;2022-11-13T08:00:52;146.93;;;37.40;;
63007;SDS011;49266;47.552;19.078;2022-11-13T08:05:32;133.88;;;34.95;;
63007;SDS011;49266;47.552;19.078;2022-11-13T08:10:13;97.25;;;37.10;;
63007;SDS011;49266;47.552;19.078;2022-11-13T08:14:53;73.82;;;32.35;;
63007;SDS011;49266;47.552;19.078;2022-11-13T08:19:33;227.95;;;33.88;;
63007;SDS011;49266;47.552;19.078;2022-11-13T08:24:13;207.38;;;37.35;;
63007;SDS011;49266;47.552;19.078;2022-11-13T08:28:53;82.68;;;34.80;;
63007;SDS011;49266;47.552;19.078;2022-11-13T08:33:34;145.20;;;35.50;;
63007;SDS011;49266;47.552;19.078;2022-11-13T08:38:14;131.73;;;33.38;;
63007;SDS011;49266;47.552;19.078;2022-11-13T08:43:01;224.93;;;32.45;;
63007;SDS011;49266;47.552;19.078;2022-11-13T08:52:21;200.02;;;34.58;;
63007;SDS011;49266;47.552;19.078;2022-11-13T08:57:01;207.45;;;35.67;;
63007;SDS011;49266;47.552;19.078;2022-11-13T09:01:41;115.18;;;34.65;;
63007;SDS011;49266;47.552;19.078;2022-11-13T09:06:22;93.13;;;31.00;;
63007;SDS011;49266;47.552;19.078;2022-11-13T09:11:03;81.07;;;34.38;;
63007;SDS011;49266;47.552;19.078;2022-11-13T09:15:43;120.90;;;34.55;;
63007;SDS011;49266;47.552;19.078;2022-11-13T09:20:24;122.22;;;30.70;;
63007;SDS011;49266;47.552;19.078;2022-11-13T09:25:04;158.73;;;35.03;;
63007;SDS011;49266;47.552;19.078;2022-11-13T09:29:45;158.68;;;32.30;;
63007;SDS011;49266;47.552;19.078;2022-11-13T09:34:25;125.20;;;33.83;;
63007;SDS011;49266;47.552;19.078;2022-11-13T09:39:06;67.50;;;32.53;;
63007;SDS011;49266;47.552;19.078;2022-11-13T09:43:51;77.60;;;32.75;;
63007;SDS011;49266;47.552;19.078;2022-11-13T09:48:39;61.28;;;32.60;;
63007;SDS011;49266;47.552;19.078;2022-11-13T09:53:20;63.47;;;32.10;;
63007;SDS011;49266;47.552;19.078;2022-11-13T09:58:04;200.40;;;34.58;;
63007;SDS011;49266;47.552;19.078;2022-11-13T10:07:48;104.38;;;33.35;;
63007;SDS011;49266;47.552;19.078;2022-11-13T10:12:30;59.53;;;32.53;;
63007;SDS011;49266;47.552;19.078;2022-11-13T10:17:14;94.95;;;32.40;;
63007;SDS011;49266;47.552;19.078;2022-11-13T10:26:57;67.82;;;31.40;;
63007;SDS011;49266;47.552;19.078;2022-11-13T10:31:45;80.45;;;31.83;;
63007;SDS011;49266;47.552;19.078;2022-11-13T10:36:31;108.53;;;29.67;;
63007;SDS011;49266;47.552;19.078;2022-11-13T10:41:14;68.90;;;31.35;;
63007;SDS011;49266;47.552;19.078;2022-11-13T10:50:35;54.00;;;31.65;;
63007;SDS011;49266;47.552;19.078;2022-11-13T11:00:16;57.53;;;33.08;;
63007;SDS011;49266;47.552;19.078;2022-11-13T11:05:00;55.47;;;34.13;;
63007;SDS011;49266;47.552;19.078;2022-11-13T11:09:41;56.22;;;34.00;;
63007;SDS011;49266;47.552;19.078;2022-11-13T11:14:26;59.92;;;33.30;;
63007;SDS011;49266;47.552;19.078;2022-11-13T11:19:09;67.07;;;34.30;;
63007;SDS011;49266;47.552;19.078;2022-11-13T11:24:02;54.85;;;34.28;;
63007;SDS011;49266;47.552;19.078;2022-11-13T11:28:45;50.35;;;31.42;;
63007;SDS011;49266;47.552;19.078;2022-11-13T11:33:34;54.75;;;32.92;;
63007;SDS011;49266;47.552;19.078;2022-11-13T11:47:38;58.00;;;35.05;;
63007;SDS011;49266;47.552;19.078;2022-11-13T11:57:11;52.88;;;33.65;;
63007;SDS011;49266;47.552;19.078;2022-11-13T12:02:09;55.55;;;34.45;;
63007;SDS011;49266;47.552;19.078;2022-11-13T12:07:15;58.22;;;34.75;;
63007;SDS011;49266;47.552;19.078;2022-11-13T12:26:34;60.63;;;36.33;;
63007;SDS011;49266;47.552;19.078;2022-11-13T12:31:20;62.97;;;37.33;;
63007;SDS011;49266;47.552;19.078;2022-11-13T12:36:03;69.93;;;38.35;;
63007;SDS011;49266;47.552;19.078;2022-11-13T12:40:47;65.25;;;36.88;;
63007;SDS011;49266;47.552;19.078;2022-11-13T12:45:33;66.95;;;37.78;;
63007;SDS011;49266;47.552;19.078;2022-11-13T12:50:25;69.07;;;38.80;;
63007;SDS011;49266;47.552;19.078;2022-11-13T12:55:08;65.72;;;37.90;;
63007;SDS011;49266;47.552;19.078;2022-11-13T13:14:40;69.60;;;39.13;;
63007;SDS011;49266;47.552;19.078;2022-11-13T13:24:08;65.07;;;36.70;;
63007;SDS011;49266;47.552;19.078;2022-11-13T13:28:50;68.88;;;38.55;;
63007;SDS011;49266;47.552;19.078;2022-11-13T13:43:27;84.20;;;39.10;;
63007;SDS011;49266;47.552;19.078;2022-11-13T13:48:10;84.15;;;39.33;;
63007;SDS011;49266;47.552;19.078;2022-11-13T13:52:51;82.20;;;40.30;;
63007;SDS011;49266;47.552;19.078;2022-11-13T13:57:32;69.40;;;36.83;;
63007;SDS011;49266;47.552;19.078;2022-11-13T14:02:14;76.72;;;38.92;;
63007;SDS011;49266;47.552;19.078;2022-11-13T14:06:57;75.78;;;39.38;;
63007;SDS011;49266;47.552;19.078;2022-11-13T14:11:37;87.95;;;42.90;;
63007;SDS011;49266;47.552;19.078;2022-11-13T14:16:17;84.78;;;42.05;;
63007;SDS011;49266;47.552;19.078;2022-11-13T14:20:59;85.13;;;42.28;;
63007;SDS011;49266;47.552;19.078;2022-11-13T14:25:39;81.88;;;41.53;;
63007;SDS011;49266;47.552;19.078;2022-11-13T14:30:21;85.72;;;43.38;;
63007;SDS011;49266;47.552;19.078;2022-11-13T14:35:02;86.35;;;42.67;;
63007;SDS011;49266;47.552;19.078;2022-11-13T14:39:44;87.43;;;43.53;;
63007;SDS011;49266;47.552;19.078;2022-11-13T14:44:29;83.78;;;41.70;;
63007;SDS011;49266;47.552;19.078;2022-11-13T14:49:11;87.32;;;42.88;;
63007;SDS011;49266;47.552;19.078;2022-11-13T14:53:57;85.45;;;42.45;;
63007;SDS011;49266;47.552;19.078;2022-11-13T14:58:39;90.57;;;42.75;;
63007;SDS011;49266;47.552;19.078;2022-11-13T15:03:22;84.32;;;42.60;;
63007;SDS011;49266;47.552;19.078;2022-11-13T15:08:03;85.82;;;43.00;;
63007;SDS011;49266;47.552;19.078;2022-11-13T15:12:43;92.05;;;44.08;;
63007;SDS011;49266;47.552;19.078;2022-11-13T15:17:23;88.47;;;44.38;;
63007;SDS011;49266;47.552;19.078;2022-11-13T15:22:22;94.95;;;44.42;;
63007;SDS011;49266;47.552;19.078;2022-11-13T15:27:02;91.55;;;43.90;;
63007;SDS011;49266;47.552;19.078;2022-11-13T15:31:43;101.95;;;50.00;;
63007;SDS011;49266;47.552;19.078;2022-11-13T15:36:24;121.18;;;53.53;;
63007;SDS011;49266;47.552;19.078;2022-11-13T15:41:11;110.65;;;50.30;;
63007;SDS011;49266;47.552;19.078;2022-11-13T15:45:51;101.93;;;47.55;;
63007;SDS011;49266;47.552;19.078;2022-11-13T15:50:31;91.60;;;45.88;;
63007;SDS011;49266;47.552;19.078;2022-11-13T15:55:16;110.30;;;48.92;;
63007;SDS011;49266;47.552;19.078;2022-11-13T15:59:57;114.78;;;54.03;;
63007;SDS011;49266;47.552;19.078;2022-11-13T16:04:37;122.70;;;58.05;;
63007;SDS011;49266;47.552;19.078;2022-11-13T16:09:18;127.63;;;60.30;;
63007;SDS011;49266;47.552;19.078;2022-11-13T16:13:59;112.68;;;53.20;;
63007;SDS011;49266;47.552;19.078;2022-11-13T16:18:39;124.28;;;54.42;;
63007;SDS011;49266;47.552;19.078;2022-11-13T16:23:19;132.68;;;59.92;;
63007;SDS011;49266;47.552;19.078;2022-11-13T16:28:00;120.38;;;55.47;;
63007;SDS011;49266;47.552;19.078;2022-11-13T16:32:40;125.45;;;58.55;;
63007;SDS011;49266;47.552;19.078;2022-11-13T16:37:21;137.88;;;64.70;;
63007;SDS011;49266;47.552;19.078;2022-11-13T16:42:02;123.50;;;59.08;;
63007;SDS011;49266;47.552;19.078;2022-11-13T16:46:42;121.72;;;58.17;;
63007;SDS011;49266;47.552;19.078;2022-11-13T16:51:24;116.22;;;48.28;;
63007;SDS011;49266;47.552;19.078;2022-11-13T16:56:09;207.63;;;46.90;;
63007;SDS011;49266;47.552;19.078;2022-11-13T17:00:50;216.75;;;46.63;;
63007;SDS011;49266;47.552;19.078;2022-11-13T17:05:30;221.93;;;48.42;;
63007;SDS011;49266;47.552;19.078;2022-11-13T17:10:15;168.02;;;50.60;;
63007;SDS011;49266;47.552;19.078;2022-11-13T17:14:55;159.55;;;49.63;;
63007;SDS011;49266;47.552;19.078;2022-11-13T17:19:35;215.15;;;47.33;;
63007;SDS011;49266;47.552;19.078;2022-11-13T17:24:20;230.85;;;47.50;;
63007;SDS011;49266;47.552;19.078;2022-11-13T17:29:00;244.95;;;51.53;;
63007;SDS011;49266;47.552;19.078;2022-11-13T17:33:40;315.40;;;51.15;;
63007;SDS011;49266;47.552;19.078;2022-11-13T17:38:21;363.88;;;53.00;;
63007;SDS011;49266;47.552;19.078;2022-11-13T17:43:02;312.98;;;52.70;;
63007;SDS011;49266;47.552;19.078;2022-11-13T17:47:42;256.55;;;54.30;;
63007;SDS011;49266;47.552;19.078;2022-11-13T17:52:22;258.40;;;55.03;;
63007;SDS011;49266;47.552;19.078;2022-11-13T17:57:02;219.13;;;54.22;;
63007;SDS011;49266;47.552;19.078;2022-11-13T18:01:44;229.00;;;53.45;;
63007;SDS011;49266;47.552;19.078;2022-11-13T18:06:24;191.75;;;50.30;;
63007;SDS011;49266;47.552;19.078;2022-11-13T18:11:06;230.63;;;52.75;;
63007;SDS011;49266;47.552;19.078;2022-11-13T18:15:46;238.52;;;53.20;;
63007;SDS011;49266;47.552;19.078;2022-11-13T18:20:27;155.27;;;53.97;;
63007;SDS011;49266;47.552;19.078;2022-11-13T18:25:07;156.70;;;56.22;;
63007;SDS011;49266;47.552;19.078;2022-11-13T18:29:48;137.50;;;56.70;;
63007;SDS011;49266;47.552;19.078;2022-11-13T18:34:28;101.97;;;51.97;;
63007;SDS011;49266;47.552;19.078;2022-11-13T18:39:09;132.63;;;59.40;;
63007;SDS011;49266;47.552;19.078;2022-11-13T18:43:50;122.72;;;56.45;;
63007;SDS011;49266;47.552;19.078;2022-11-13T18:48:31;140.63;;;59.13;;
63007;SDS011;49266;47.552;19.078;2022-11-13T18:53:12;158.25;;;64.97;;
63007;SDS011;49266;47.552;19.078;2022-11-13T18:57:52;252.15;;;69.25;;
63007;SDS011;49266;47.552;19.078;2022-11-13T19:02:32;313.13;;;73.88;;
63007;SDS011;49266;47.552;19.078;2022-11-13T19:07:12;371.38;;;76.15;;
63007;SDS011;49266;47.552;19.078;2022-11-13T19:11:52;347.20;;;76.65;;
63007;SDS011;49266;47.552;19.078;2022-11-13T19:16:37;334.23;;;83.95;;
63007;SDS011;49266;47.552;19.078;2022-11-13T19:21:17;249.00;;;75.93;;
63007;SDS011;49266;47.552;19.078;2022-11-13T19:25:58;156.60;;;60.25;;
63007;SDS011;49266;47.552;19.078;2022-11-13T19:30:42;186.98;;;61.97;;
63007;SDS011;49266;47.552;19.078;2022-11-13T19:35:24;212.52;;;60.20;;
63007;SDS011;49266;47.552;19.078;2022-11-13T19:40:04;214.52;;;58.25;;
63007;SDS011;49266;47.552;19.078;2022-11-13T19:44:45;165.25;;;53.35;;
63007;SDS011;49266;47.552;19.078;2022-11-13T19:49:25;214.82;;;54.17;;
63007;SDS011;49266;47.552;19.078;2022-11-13T19:54:05;225.73;;;56.00;;
63007;SDS011;49266;47.552;19.078;2022-11-13T19:58:46;181.82;;;51.78;;
63007;SDS011;49266;47.552;19.078;2022-11-13T20:03:26;201.90;;;51.40;;
63007;SDS011;49266;47.552;19.078;2022-11-13T20:08:07;231.23;;;56.80;;
63007;SDS011;49266;47.552;19.078;2022-11-13T20:12:47;267.45;;;57.65;;
63007;SDS011;49266;47.552;19.078;2022-11-13T20:17:28;218.75;;;55.80;;
63007;SDS011;49266;47.552;19.078;2022-11-13T20:22:08;175.57;;;53.78;;
63007;SDS011;49266;47.552;19.078;2022-11-13T20:26:48;197.23;;;56.20;;
63007;SDS011;49266;47.552;19.078;2022-11-13T20:31:28;179.57;;;49.83;;
63007;SDS011;49266;47.552;19.078;2022-11-13T20:36:09;169.35;;;49.05;;
63007;SDS011;49266;47.552;19.078;2022-11-13T20:40:49;246.85;;;46.72;;
63007;SDS011;49266;47.552;19.078;2022-11-13T20:45:30;277.23;;;41.83;;
63007;SDS011;49266;47.552;19.078;2022-11-13T20:50:10;227.07;;;42.05;;
63007;SDS011;49266;47.552;19.078;2022-11-13T20:54:50;273.88;;;41.60;;
63007;SDS011;49266;47.552;19.078;2022-11-13T20:59:30;184.55;;;40.30;;
63007;SDS011;49266;47.552;19.078;2022-11-13T21:04:10;137.10;;;39.75;;
63007;SDS011;49266;47.552;19.078;2022-11-13T21:08:51;179.32;;;39.53;;
63007;SDS011;49266;47.552;19.078;2022-11-13T21:13:34;248.50;;;41.72;;
63007;SDS011;49266;47.552;19.078;2022-11-13T21:18:14;238.27;;;42.55;;
63007;SDS011;49266;47.552;19.078;2022-11-13T21:22:55;138.80;;;40.30;;
63007;SDS011;49266;47.552;19.078;2022-11-13T21:27:35;248.82;;;45.33;;
63007;SDS011;49266;47.552;19.078;2022-11-13T21:32:15;323.77;;;45.70;;
63007;SDS011;49266;47.552;19.078;2022-11-13T21:36:56;233.00;;;44.92;;
63007;SDS011;49266;47.552;19.078;2022-11-13T21:41:36;222.27;;;42.67;;
63007;SDS011;49266;47.552;19.078;2022-11-13T21:46:16;418.58;;;47.20;;
63007;SDS011;49266;47.552;19.078;2022-11-13T21:50:57;338.90;;;44.78;;
63007;SDS011;49266;47.552;19.078;2022-11-13T21:55:37;294.65;;;44.05;;
63007;SDS011;49266;47.552;19.078;2022-11-13T22:00:17;249.65;;;40.03;;
63007;SDS011;49266;47.552;19.078;2022-11-13T22:04:58;240.65;;;36.67;;
63007;SDS011;49266;47.552;19.078;2022-11-13T22:09:38;193.00;;;35.90;;
63007;SDS011;49266;47.552;19.078;2022-11-13T22:14:18;286.77;;;38.67;;
63007;SDS011;49266;47.552;19.078;2022-11-13T22:18:59;254.05;;;39.63;;
63007;SDS011;49266;47.552;19.078;2022-11-13T22:23:40;181.18;;;36.15;;
63007;SDS011;49266;47.552;19.078;2022-11-13T22:28:20;149.18;;;32.83;;
63007;SDS011;49266;47.552;19.078;2022-11-13T22:33:01;154.95;;;34.00;;
63007;SDS011;49266;47.552;19.078;2022-11-13T22:37:41;231.77;;;34.55;;
63007;SDS011;49266;47.552;19.078;2022-11-13T22:42:21;149.77;;;33.85;;
63007;SDS011;49266;47.552;19.078;2022-11-13T22:47:02;144.68;;;34.25;;
63007;SDS011;49266;47.552;19.078;2022-11-13T22:51:42;171.30;;;36.20;;
63007;SDS011;49266;47.552;19.078;2022-11-13T22:56:23;242.48;;;36.70;;
63007;SDS011;49266;47.552;19.078;2022-11-13T23:01:07;206.77;;;39.03;;
63007;SDS011;49266;47.552;19.078;2022-11-13T23:05:47;273.92;;;39.65;;
63007;SDS011;49266;47.552;19.078;2022-11-13T23:10:28;285.48;;;41.08;;
63007;SDS011;49266;47.552;19.078;2022-11-13T23:15:08;283.10;;;41.35;;
63007;SDS011;49266;47.552;19.078;2022-11-13T23:19:48;326.13;;;40.90;;
63007;SDS011;49266;47.552;19.078;2022-11-13T23:24:28;215.85;;;38.72;;
63007;SDS011;49266;47.552;19.078;2022-11-13T23:29:09;237.00;;;39.15;;
63007;SDS011;49266;47.552;19.078;2022-11-13T23:33:49;284.17;;;40.22;;
63007;SDS011;49266;47.552;19.078;2022-11-13T23:38:29;222.15;;;37.80;;
63007;SDS011;49266;47.552;19.078;2022-11-13T23:43:10;241.75;;;37.80;;
63007;SDS011;49266;47.552;19.078;2022-11-13T23:47:50;292.23;;;37.10;;
63007;SDS011;49266;47.552;19.078;2022-11-13T23:52:31;190.35;;;34.50;;
63007;SDS011;49266;47.552;19.078;2022-11-13T23:57:11;224.57;;;36.30;;
